Hlavní strana
METAR-TAF:

METAR-TAF

Letiště :

Rygge, Norsko

zeměpisná šířka: 59-23N, zeměpisná délka: 010-47E, výška: 5 m

Aktuální stav počasí

Zpráva byla vytvořena před 31 minutami, v 05:20 UTC
Severní vítr 10 kt
Teplota 1°C
Vlhkost vzduchu 86%
Tlak 1034 hPa
Viditelnost 10 km a více
neznámé

METAR: ENRY 210520Z AUTO 36010KT 9999NDV UP FEW012/// BKN017/// BKN021/// 01/M01 Q1034

Čas: 06:51 (05:51 UTC)

Předpověď počasí

Předpověď platná od 21 v 00 UTC do 21 v 24 UTC
Severoseverovýchodní vítr 8 kt
Viditelnost 10 km a více
Oblačno až skoro zataženo ve výšce 1500 ft
Pravděpodobnost 40% :
Dočasný
od 21 v 00 UTC do 21 v 12 UTC
Oblačno až skoro zataženo ve výšce 800 ft
Pravděpodobnost 40%
od 21 v 21 UTC do 21 v 24 UTC
Viditelnost: 0800 m
ve výšce 200 ft
mrznoucí mlha

TAF: ENRY 2100/2124 02008KT 9999 BKN015 PROB40 TEMPO 2100/2112 BKN008 PROB40 2121/2124 0800 FZFG VV002

Stav a předpovědi počasí z více než 4 000 letišť (zprávy METAR a TAF).

Červené a žluté tečky na mapě představují dostupné meteorologické stanice.

Když kurzor umístíte na tečku, zobrazí se název stanice.

Pak kliknutím zobrazíte stav a předpověď počasí.

Chcete-li změnit mapu, kliknutím na zelené tlačítko se znaménkem +mapu přiblížíte, kliknutím na zelené tlačítko se znaménkem – mapu oddálíte a kliknutím na zelené šipky přejdete na sousední mapy.


METAR-TAF: